Amboy, Minnesota
Current Conditions -  °F | °C
As of 3:15 PM on Wednesday 26 Nov 2014 (Local Time) from KJYG Reporting Station
Broken Clouds Broken Clouds  
Wind Chill: 11°   Ceiling: 1400
Heat Index: 25°   Visibility: 10mi
Dew Point: 19°   Wind: 18mph
Humidity: 80%   Direction: 320°NW
Pressure: 30.25"   Gusts: NA
Location:  43.89°N, 94.16°W
Report Text: KJYG 262115Z AUTO 32016KT 10SM BKN014 M04/M07 A3025 RMK AO2
Loading
Personal Weather Stations






























Interactive Weather Map New forecast layout! Learn more

10-Day Weather Forecast

Advertisements
Track Severe Weather on mobile